Roy Baker — WDC2698 — position and weather

sailwx.info

Track history (hours):
 
Tides and Currents Weather Stations Pressure Air Temp Water Temp Dewpoint Dewpoint Depression Visibility Wind Speed Wind Dir Waves Ship Positions

Roy Baker

Owner: Kirby Inland Marine LP, Houston, TX. More information available from US FCC via Universal Licensing System and Coast Guard Vessel Documentation Center.

Last reported at 2015-Aug-02 12:21 UTC. Time now 2015-Aug-03 10:36 UTC.
Position N 29°38' W 090°20'.

Length 24 m; draft 2.3 m.

Type: Towing. MMSI: 366996540.

Date/timePositionNaut miles runAvg speedWind from/ knotsBaromVisibWave heightAir tempDewpointWater temp
2015-Aug-02 12:21N 29°38' W 090°20'10 4.8
2015-Aug-02 10:22N 29°34' W 090°30'5 5.6
2015-Aug-02 09:33N 29°35' W 090°35'5 5.3
2015-Aug-02 08:33N 29°36' W 090°41'4 4.0
2015-Aug-02 07:33N 29°34' W 090°45'3 3.3
2015-Aug-02 06:32N 29°32' W 090°48'  
2015-Jul-30 11:22N 29°51' W 093°58'0 0.0
2015-Jul-30 10:33N 29°51' W 093°58'0 0.0
2015-Jul-30 09:21N 29°51' W 093°58'0 0.3
2015-Jul-30 08:07N 29°51' W 093°58'0 0.1
2015-Jul-30 07:32N 29°51' W 093°58'0 0.0
2015-Jul-30 01:31N 29°51' W 093°58'18 1.4
2015-Jul-29 12:05N 30°03' W 093°42'156 3.7
2015-Jul-27 18:33N 29°32' W 090°47'4 4.1
2015-Jul-27 17:33N 29°35' W 090°43'2 2.5
2015-Jul-27 16:33N 29°36' W 090°41'1 0.5
2015-Jul-27 15:33N 29°36' W 090°40'6 5.8
2015-Jul-27 14:32N 29°34' W 090°34'38 3.4
2015-Jul-27 03:30N 29°55' W 089°58'4 2.1
2015-Jul-27 01:33N 29°58' W 090°02'1 0.5
2015-Jul-27 00:26N 29°59' W 090°01'2 2.2
2015-Jul-26 23:28N 29°60' W 089°60'0 0.2
2015-Jul-26 22:34N 29°60' W 089°59'0 0.0
2015-Jul-26 21:27N 29°60' W 089°59'0 0.0
2015-Jul-26 20:30N 29°60' W 089°59'0 0.0
2015-Jul-26 19:33N 29°60' W 089°59'0 0.0
2015-Jul-26 18:30N 29°60' W 089°59'0 0.0
2015-Jul-26 17:33N 29°60' W 089°59'0 0.0
2015-Jul-26 16:31N 29°60' W 089°59'0 0.0
2015-Jul-26 15:32N 29°60' W 089°59'0 0.0
2015-Jul-26 14:33N 29°60' W 089°59'0 0.0
2015-Jul-26 13:30N 29°60' W 089°59'0 0.0
2015-Jul-26 12:27N 29°60' W 089°59'0 0.0
2015-Jul-25 23:26N 29°60' W 089°59'0 0.0
2015-Jul-25 22:31N 29°60' W 089°59'0 0.0
2015-Jul-25 20:18N 29°60' W 089°59'0 0.0
2015-Jul-25 19:27N 29°60' W 089°59'0 0.0
2015-Jul-25 18:32N 29°60' W 089°59'0 0.0
2015-Jul-25 17:26N 29°60' W 089°59'0 0.0
2015-Jul-25 13:23N 29°60' W 089°59'0 0.0
2015-Jul-25 12:26N 29°60' W 089°59'0 0.0
2015-Jul-25 11:23N 29°60' W 089°59'0 0.0
2015-Jul-25 09:17N 29°60' W 089°59'  
Track history (hours):
 
Tides and Currents Weather Stations Pressure Air Temp Water Temp Dewpoint Dewpoint Depression Visibility Wind Speed Wind Dir Waves Ship Positions

Roy Baker

Owner: Kirby Inland Marine LP, Houston, TX. More information available from US FCC via Universal Licensing System and Coast Guard Vessel Documentation Center.

Last reported at 2015-Aug-02 12:21 UTC. Time now 2015-Aug-03 10:36 UTC.
Position N 29°38' W 090°20'.

Length 24 m; draft 2.3 m.

Type: Towing. MMSI: 366996540.

Date/timePositionNaut miles runAvg speedWind from/ knotsBaromVisibWave heightAir tempDewpointWater temp
2015-Aug-02 12:21N 29°38' W 090°20'10 4.8
2015-Aug-02 10:22N 29°34' W 090°30'5 5.6
2015-Aug-02 09:33N 29°35' W 090°35'5 5.3
2015-Aug-02 08:33N 29°36' W 090°41'4 4.0
2015-Aug-02 07:33N 29°34' W 090°45'3 3.3
2015-Aug-02 06:32N 29°32' W 090°48'  
2015-Jul-30 11:22N 29°51' W 093°58'0 0.0
2015-Jul-30 10:33N 29°51' W 093°58'0 0.0
2015-Jul-30 09:21N 29°51' W 093°58'0 0.3
2015-Jul-30 08:07N 29°51' W 093°58'0 0.1
2015-Jul-30 07:32N 29°51' W 093°58'0 0.0
2015-Jul-30 01:31N 29°51' W 093°58'18 1.4
2015-Jul-29 12:05N 30°03' W 093°42'156 3.7
2015-Jul-27 18:33N 29°32' W 090°47'4 4.1
2015-Jul-27 17:33N 29°35' W 090°43'2 2.5
2015-Jul-27 16:33N 29°36' W 090°41'1 0.5
2015-Jul-27 15:33N 29°36' W 090°40'6 5.8
2015-Jul-27 14:32N 29°34' W 090°34'38 3.4
2015-Jul-27 03:30N 29°55' W 089°58'4 2.1
2015-Jul-27 01:33N 29°58' W 090°02'1 0.5
2015-Jul-27 00:26N 29°59' W 090°01'2 2.2
2015-Jul-26 23:28N 29°60' W 089°60'0 0.2
2015-Jul-26 22:34N 29°60' W 089°59'0 0.0
2015-Jul-26 21:27N 29°60' W 089°59'0 0.0
2015-Jul-26 20:30N 29°60' W 089°59'0 0.0
2015-Jul-26 19:33N 29°60' W 089°59'0 0.0
2015-Jul-26 18:30N 29°60' W 089°59'0 0.0
2015-Jul-26 17:33N 29°60' W 089°59'0 0.0
2015-Jul-26 16:31N 29°60' W 089°59'0 0.0
2015-Jul-26 15:32N 29°60' W 089°59'0 0.0
2015-Jul-26 14:33N 29°60' W 089°59'0 0.0
2015-Jul-26 13:30N 29°60' W 089°59'0 0.0
2015-Jul-26 12:27N 29°60' W 089°59'0 0.0
2015-Jul-25 23:26N 29°60' W 089°59'0 0.0
2015-Jul-25 22:31N 29°60' W 089°59'0 0.0
2015-Jul-25 20:18N 29°60' W 089°59'0 0.0
2015-Jul-25 19:27N 29°60' W 089°59'0 0.0
2015-Jul-25 18:32N 29°60' W 089°59'0 0.0
2015-Jul-25 17:26N 29°60' W 089°59'0 0.0
2015-Jul-25 13:23N 29°60' W 089°59'0 0.0
2015-Jul-25 12:26N 29°60' W 089°59'0 0.0
2015-Jul-25 11:23N 29°60' W 089°59'0 0.0
2015-Jul-25 09:17N 29°60' W 089°59'  

Dump ship's entire track history